Time;durP1;ratioP1;P1;durP2;ratioP2;P2;SDS_P1;SDS_P2;PMS_P1;PMS_P2;Temp;Humidity;BMP_temperature;BMP_pressure;BME280_temperature;BME280_humidity;BME280_pressure;Samples;Min_cycle;Max_cycle;Signal;HPM_P1;HPM_P2
2023/09/15 00:01:46;;;;;;;5.80;3.80;;;16.10;99.90;;;;;;5084945;28;20040;-42
2023/09/15 00:04:11;;;;;;;5.90;4.20;;;16.20;99.90;;;;;;5083893;28;20036;-42
2023/09/15 00:06:39;;;;;;;4.55;3.97;;;16.10;99.90;;;;;;5084798;28;20020;-42
2023/09/15 00:09:06;;;;;;;7.45;4.50;;;16.10;99.90;;;;;;5084631;28;20074;-43
2023/09/15 00:11:42;;;;;;;5.95;4.40;;;16.10;99.90;;;;;;5084063;28;20024;-42
2023/09/15 00:14:12;;;;;;;6.10;4.07;;;16.10;99.90;;;;;;5085451;28;20035;-44
2023/09/15 00:16:45;;;;;;;7.55;4.00;;;16.10;99.90;;;;;;5085095;28;20042;-43
2023/09/15 00:19:14;;;;;;;;;;;16.00;99.90;;;;;;5084171;28;20131;-42
2023/09/15 00:21:40;;;;;;;7.03;4.35;;;16.00;99.90;;;;;;5084949;28;19904;-43
2023/09/15 00:24:06;;;;;;;4.97;3.83;;;16.00;99.90;;;;;;5083969;28;20486;-43
2023/09/15 00:26:33;;;;;;;4.72;3.67;;;16.00;99.90;;;;;;5084280;28;20375;-44
2023/09/15 00:29:02;;;;;;;5.50;4.20;;;16.00;99.90;;;;;;5084758;28;20035;-41
2023/09/15 00:31:28;;;;;;;5.57;3.80;;;15.90;99.90;;;;;;5084658;28;20479;-41
2023/09/15 00:33:54;;;;;;;4.70;4.00;;;15.90;99.90;;;;;;5084168;28;20035;-42
2023/09/15 00:36:20;;;;;;;5.53;4.28;;;15.90;99.90;;;;;;5087479;28;20368;-42
2023/09/15 00:38:46;;;;;;;4.43;3.90;;;15.90;99.90;;;;;;5088837;28;20062;-43
2023/09/15 00:41:13;;;;;;;5.03;3.60;;;15.90;99.90;;;;;;5088496;28;20585;-41
2023/09/15 00:43:39;;;;;;;4.63;3.70;;;15.90;99.90;;;;;;5088646;28;20528;-41
2023/09/15 00:46:06;;;;;;;4.70;3.88;;;15.90;99.90;;;;;;5087780;28;20024;-43
2023/09/15 00:48:32;;;;;;;5.22;3.95;;;15.90;99.90;;;;;;5088045;28;20024;-41
2023/09/15 00:50:58;;;;;;;4.72;3.75;;;15.90;99.90;;;;;;5089051;28;20028;-42
2023/09/15 00:53:24;;;;;;;4.35;3.47;;;15.80;99.90;;;;;;5088391;28;20028;-43
2023/09/15 00:55:51;;;;;;;5.53;4.00;;;15.80;99.90;;;;;;5089068;28;20074;-42
2023/09/15 00:58:18;;;;;;;4.72;3.78;;;15.80;99.90;;;;;;5088218;28;20024;-43
2023/09/15 01:00:45;;;;;;;5.30;3.70;;;15.80;99.90;;;;;;5087773;28;20114;-43
2023/09/15 01:03:13;;;;;;;5.32;4.00;;;15.70;99.90;;;;;;5087848;28;20058;-42
2023/09/15 01:05:43;;;;;;;5.60;3.75;;;15.70;99.90;;;;;;5089117;28;20146;-43
2023/09/15 01:08:08;;;;;;;4.47;3.67;;;15.70;99.90;;;;;;5087513;28;20020;-42
2023/09/15 01:10:34;;;;;;;4.88;3.78;;;15.60;99.90;;;;;;5088634;28;20024;-42
2023/09/15 01:13:00;;;;;;;4.00;3.53;;;15.70;99.90;;;;;;5087507;28;20399;-43
2023/09/15 01:15:39;;;;;;;6.43;4.13;;;15.60;99.90;;;;;;5084013;28;20066;-43
2023/09/15 01:18:13;;;;;;;5.57;3.70;;;15.60;99.90;;;;;;5087324;28;20475;-42
2023/09/15 01:21:06;;;;;;;6.10;3.53;;;15.60;99.90;;;;;;5084728;28;20621;-42
2023/09/15 01:23:55;;;;;;;4.90;3.90;;;15.50;99.90;;;;;;5086983;28;20744;-42
2023/09/15 01:26:44;;;;;;;5.60;3.30;;;15.50;99.90;;;;;;5077442;28;20415;-42
2023/09/15 01:29:30;;;;;;;4.32;3.33;;;15.50;99.90;;;;;;5086516;28;20028;-43
2023/09/15 01:31:59;;;;;;;4.68;3.22;;;15.50;99.90;;;;;;5083625;28;20062;-42
2023/09/15 01:34:27;;;;;;;4.32;3.40;;;15.40;99.90;;;;;;5087950;28;20024;-42
2023/09/15 01:36:56;;;;;;;5.07;4.05;;;15.40;99.90;;;;;;5087392;28;20105;-41
2023/09/15 01:39:30;;;;;;;6.05;3.92;;;15.40;99.90;;;;;;5087427;28;20027;-42
2023/09/15 01:41:59;;;;;;;6.50;3.45;;;15.40;99.90;;;;;;5087636;28;20557;-42
2023/09/15 01:44:25;;;;;;;3.92;3.50;;;15.40;99.90;;;;;;5086800;28;20815;-42
2023/09/15 01:46:54;;;;;;;6.55;4.00;;;15.30;99.90;;;;;;5087433;28;20016;-42
2023/09/15 01:49:27;;;;;;;5.35;4.30;;;15.30;99.90;;;;;;5086912;28;21036;-41
2023/09/15 01:51:54;;;;;;;6.35;3.85;;;15.30;99.90;;;;;;5087998;28;20028;-43
2023/09/15 01:54:20;;;;;;;4.00;3.60;;;15.30;99.90;;;;;;5086884;28;20032;-43
2023/09/15 01:56:49;;;;;;;5.82;3.95;;;15.30;99.90;;;;;;5086993;28;20020;-42
2023/09/15 01:59:17;;;;;;;4.88;3.80;;;15.20;99.90;;;;;;5086902;28;20032;-43
2023/09/15 02:01:42;;;;;;;4.28;3.53;;;15.20;99.90;;;;;;5086862;28;20048;-42
2023/09/15 02:04:09;;;;;;;4.50;3.38;;;15.20;99.90;;;;;;5086631;28;20032;-41
2023/09/15 02:06:46;;;;;;;5.07;3.50;;;15.20;99.90;;;;;;5088059;28;20124;-43
2023/09/15 02:09:20;;;;;;;5.47;3.85;;;15.20;99.90;;;;;;5087179;28;20032;-42
2023/09/15 02:11:46;;;;;;;5.72;3.97;;;15.10;99.90;;;;;;5087047;28;20135;-42
2023/09/15 02:14:12;;;;;;;5.25;3.53;;;15.10;99.90;;;;;;5086791;28;20069;-42
2023/09/15 02:16:37;;;;;;;6.10;4.25;;;15.10;99.90;;;;;;5087110;28;20743;-43
2023/09/15 02:19:04;;;;;;;5.25;4.15;;;15.10;99.90;;;;;;5086358;28;20043;-42
2023/09/15 02:21:29;;;;;;;6.65;3.70;;;15.10;99.90;;;;;;5087311;28;20115;-43
2023/09/15 02:23:55;;;;;;;5.88;4.18;;;15.10;99.90;;;;;;5087009;28;20180;-42
2023/09/15 02:26:21;;;;;;;5.82;3.78;;;15.10;99.90;;;;;;5086233;28;20417;-42
2023/09/15 02:28:47;;;;;;;5.00;3.80;;;15.10;99.90;;;;;;5087442;28;20028;-41
2023/09/15 02:31:15;;;;;;;4.22;3.33;;;15.00;99.90;;;;;;5086885;28;20012;-42
2023/09/15 02:33:45;;;;;;;6.53;3.88;;;15.00;99.90;;;;;;5086542;28;20480;-42
2023/09/15 02:36:11;;;;;;;8.45;4.03;;;15.00;99.90;;;;;;5086159;28;20110;-43
2023/09/15 02:38:36;;;;;;;5.55;4.15;;;15.00;99.90;;;;;;5086019;28;20062;-41
2023/09/15 02:41:02;;;;;;;5.60;4.03;;;15.00;99.90;;;;;;5086585;28;20099;-42
2023/09/15 02:43:27;;;;;;;5.72;3.95;;;15.00;99.90;;;;;;5086578;28;20532;-42
2023/09/15 02:45:53;;;;;;;4.38;3.65;;;15.00;99.90;;;;;;5086277;28;20032;-42
2023/09/15 02:48:22;;;;;;;4.72;3.47;;;14.90;99.90;;;;;;5086318;28;20571;-42
2023/09/15 02:50:47;;;;;;;4.30;3.78;;;14.90;99.90;;;;;;5086312;28;20024;-42
2023/09/15 02:53:13;;;;;;;6.35;3.85;;;14.90;99.90;;;;;;5084739;28;20031;-42
2023/09/15 02:55:42;;;;;;;5.10;3.58;;;14.80;99.90;;;;;;5087070;28;20035;-42
2023/09/15 02:58:07;;;;;;;6.07;3.80;;;14.80;99.90;;;;;;5085302;28;20047;-42
2023/09/15 03:00:33;;;;;;;3.92;3.33;;;14.80;99.90;;;;;;5085872;28;20470;-43
2023/09/15 03:02:58;;;;;;;5.00;3.70;;;14.80;99.90;;;;;;5085925;28;20063;-43
2023/09/15 03:05:28;;;;;;;8.27;3.47;;;14.80;99.90;;;;;;5086310;28;20044;-43
2023/09/15 03:07:54;;;;;;;5.05;4.30;;;14.80;99.90;;;;;;5086217;28;20047;-43
2023/09/15 03:10:20;;;;;;;5.20;4.07;;;14.80;99.90;;;;;;5085786;28;20443;-42
2023/09/15 03:12:45;;;;;;;3.78;3.25;;;14.70;99.90;;;;;;5085734;28;20700;-42
2023/09/15 03:15:11;;;;;;;5.07;3.55;;;14.70;99.90;;;;;;5084739;28;20028;-42
2023/09/15 03:17:37;;;;;;;6.18;4.18;;;14.70;99.90;;;;;;5086300;28;20008;-42
2023/09/15 03:20:24;;;;;;;4.95;3.65;;;14.70;99.90;;;;;;5085134;28;20040;-42
2023/09/15 03:22:51;;;;;;;5.03;3.95;;;14.70;99.90;;;;;;5084853;28;20433;-42
2023/09/15 03:25:17;;;;;;;4.78;3.78;;;14.70;99.90;;;;;;5085578;28;20491;-42
2023/09/15 03:27:43;;;;;;;5.65;4.05;;;14.60;99.90;;;;;;5085590;28;20041;-43
2023/09/15 03:30:10;;;;;;;4.97;3.40;;;14.60;99.90;;;;;;5084361;28;20807;-43
2023/09/15 03:32:36;;;;;;;5.57;4.25;;;14.60;99.90;;;;;;5085710;28;20020;-43
2023/09/15 03:35:05;;;;;;;5.90;3.70;;;14.60;99.90;;;;;;5083931;28;20521;-42
2023/09/15 03:37:32;;;;;;;6.43;4.18;;;14.50;99.90;;;;;;5085705;28;20286;-43
2023/09/15 03:40:02;;;;;;;6.15;4.38;;;14.50;99.90;;;;;;5085166;28;20043;-43
2023/09/15 03:42:28;;;;;;;6.85;4.30;;;14.60;99.90;;;;;;5084990;28;20027;-42
2023/09/15 03:44:56;;;;;;;4.30;3.88;;;14.50;99.90;;;;;;5085203;28;20040;-42
2023/09/15 03:47:22;;;;;;;4.60;3.88;;;14.50;99.90;;;;;;5081822;28;20028;-42
2023/09/15 03:49:47;;;;;;;5.00;4.00;;;14.50;99.90;;;;;;5079656;28;20028;-42
2023/09/15 03:52:13;;;;;;;5.55;4.00;;;14.50;99.90;;;;;;5084508;28;20024;-43
2023/09/15 03:54:38;;;;;;;3.78;3.17;;;14.40;99.90;;;;;;5085002;28;20490;-43
2023/09/15 03:57:13;;;;;;;5.00;3.63;;;14.40;99.90;;;;;;5084399;28;20035;-43
2023/09/15 03:59:48;;;;;;;5.25;3.67;;;14.40;99.90;;;;;;5085637;28;20024;-42
2023/09/15 04:02:13;;;;;;;5.53;3.83;;;14.40;99.90;;;;;;5084344;28;20044;-42
2023/09/15 04:04:39;;;;;;;6.25;3.78;;;14.40;99.90;;;;;;5084219;28;20043;-42
2023/09/15 04:07:05;;;;;;;5.53;3.70;;;14.40;99.90;;;;;;5084404;28;20024;-43
2023/09/15 04:09:30;;;;;;;4.05;3.65;;;14.40;99.90;;;;;;5084011;28;20110;-43
2023/09/15 04:11:56;;;;;;;4.13;3.70;;;14.30;99.90;;;;;;5084927;28;20044;-43
2023/09/15 04:14:25;;;;;;;4.03;3.22;;;14.30;99.90;;;;;;5084293;28;20027;-41
2023/09/15 04:16:59;;;;;;;5.45;3.80;;;14.30;99.90;;;;;;5084889;28;20020;-42
2023/09/15 04:19:25;;;;;;;4.85;3.80;;;14.30;99.90;;;;;;5084381;28;20118;-42
2023/09/15 04:21:58;;;;;;;4.15;3.70;;;14.30;99.90;;;;;;5085539;28;20107;-43
2023/09/15 04:24:30;;;;;;;4.30;3.17;;;14.30;99.90;;;;;;5084301;28;20032;-43
2023/09/15 04:26:56;;;;;;;4.40;3.17;;;14.30;99.90;;;;;;5081931;28;20111;-43
2023/09/15 04:29:31;;;;;;;4.50;3.15;;;14.20;99.90;;;;;;5084183;28;20111;-43
2023/09/15 04:31:56;;;;;;;6.10;3.70;;;14.20;99.90;;;;;;5083650;28;20549;-42
2023/09/15 04:34:22;;;;;;;5.15;3.47;;;14.10;99.90;;;;;;5084446;28;20024;-42
2023/09/15 04:36:47;;;;;;;5.20;3.58;;;14.20;99.90;;;;;;5084633;28;20024;-42
2023/09/15 04:39:13;;;;;;;4.88;3.28;;;14.10;99.90;;;;;;5083346;28;20049;-43
2023/09/15 04:41:39;;;;;;;6.20;4.05;;;14.10;99.90;;;;;;5084285;28;20024;-41
2023/09/15 04:44:05;;;;;;;7.10;4.07;;;14.10;99.90;;;;;;5084180;28;20032;-43
2023/09/15 04:46:31;;;;;;;7.78;4.47;;;14.10;99.90;;;;;;5083880;28;20024;-43
2023/09/15 04:48:57;;;;;;;6.22;3.83;;;14.10;99.90;;;;;;5084647;28;20054;-42
2023/09/15 04:51:22;;;;;;;5.30;4.15;;;14.10;99.90;;;;;;5084504;28;20049;-42
2023/09/15 04:53:48;;;;;;;5.50;3.70;;;14.00;99.90;;;;;;5084556;28;20024;-42
2023/09/15 04:56:19;;;;;;;5.78;3.85;;;14.00;99.90;;;;;;5084873;28;20020;-42
2023/09/15 04:58:45;;;;;;;5.80;3.93;;;14.00;99.90;;;;;;5085605;28;20035;-42
2023/09/15 05:01:16;;;;;;;4.07;3.67;;;14.00;99.90;;;;;;5083602;28;20749;-41
2023/09/15 05:03:43;;;;;;;4.60;3.70;;;13.90;99.90;;;;;;5084490;28;20390;-43
2023/09/15 05:06:08;;;;;;;5.13;4.00;;;13.90;99.90;;;;;;5084111;28;20035;-43
2023/09/15 05:08:37;;;;;;;5.68;3.92;;;13.90;99.90;;;;;;5084140;28;20028;-43
2023/09/15 05:11:03;;;;;;;5.32;3.60;;;13.90;99.90;;;;;;5084209;28;20028;-41
2023/09/15 05:13:32;;;;;;;5.78;4.30;;;13.90;99.90;;;;;;5084430;28;20016;-42
2023/09/15 05:15:58;;;;;;;4.97;3.75;;;13.90;99.90;;;;;;5083888;28;20241;-42
2023/09/15 05:18:23;;;;;;;5.80;3.95;;;13.90;99.90;;;;;;5084762;28;20115;-42
2023/09/15 05:20:49;;;;;;;6.05;3.75;;;13.90;99.90;;;;;;5085135;28;20035;-42
2023/09/15 05:23:15;;;;;;;5.05;3.83;;;13.80;99.90;;;;;;5087548;28;20356;-43
2023/09/15 05:25:40;;;;;;;5.82;4.22;;;13.80;99.90;;;;;;5089202;28;20036;-43
2023/09/15 05:28:06;;;;;;;5.15;4.10;;;13.80;99.90;;;;;;5086269;28;20107;-42
2023/09/15 05:30:32;;;;;;;5.30;3.95;;;13.80;99.90;;;;;;5088351;28;20036;-43
2023/09/15 05:33:01;;;;;;;4.75;3.75;;;13.80;99.90;;;;;;5087043;28;20024;-43
2023/09/15 05:35:39;;;;;;;4.88;4.05;;;13.80;99.90;;;;;;5085610;28;20477;-42
2023/09/15 05:38:04;;;;;;;5.80;4.32;;;13.80;99.90;;;;;;5086639;28;20212;-42
2023/09/15 05:40:30;;;;;;;4.60;3.38;;;13.80;99.90;;;;;;5087479;28;20020;-43
2023/09/15 05:42:57;;;;;;;7.35;4.60;;;13.80;99.90;;;;;;5086358;28;20012;-43
2023/09/15 05:45:22;;;;;;;4.60;4.00;;;13.80;99.90;;;;;;5086617;28;20032;-43
2023/09/15 05:47:48;;;;;;;5.82;4.22;;;13.90;99.90;;;;;;5087372;28;20031;-42
2023/09/15 05:50:13;;;;;;;6.82;4.35;;;13.90;99.90;;;;;;5085721;28;20031;-43
2023/09/15 05:52:39;;;;;;;4.38;3.95;;;13.90;99.90;;;;;;5086862;28;20131;-42
2023/09/15 05:55:05;;;;;;;6.60;4.55;;;13.90;99.90;;;;;;5086347;28;20027;-42
2023/09/15 05:57:34;;;;;;;6.00;4.25;;;13.90;99.90;;;;;;5086081;28;20050;-43
2023/09/15 06:00:02;;;;;;;7.20;4.80;;;13.90;99.90;;;;;;5083376;28;20361;-43
2023/09/15 06:02:48;;;;;;;5.97;4.50;;;13.90;99.90;;;;;;5086732;28;20052;-42
2023/09/15 06:05:14;;;;;;;4.85;4.32;;;14.00;99.90;;;;;;5082798;28;20094;-43
2023/09/15 06:07:45;;;;;;;7.50;4.35;;;14.00;99.90;;;;;;5087074;28;20459;-43
2023/09/15 06:10:10;;;;;;;7.53;4.07;;;14.00;99.90;;;;;;5086062;28;20035;-43
2023/09/15 06:12:36;;;;;;;4.68;4.07;;;14.00;99.90;;;;;;5087021;28;20020;-42
2023/09/15 06:15:02;;;;;;;5.63;4.10;;;14.00;99.90;;;;;;5085603;28;20157;-43
2023/09/15 06:17:28;;;;;;;5.75;3.90;;;14.00;99.90;;;;;;5086061;28;20017;-43
2023/09/15 06:19:54;;;;;;;8.27;4.30;;;14.10;99.90;;;;;;5086386;28;20039;-42
2023/09/15 06:22:21;;;;;;;6.20;3.97;;;14.10;99.90;;;;;;5086349;28;20027;-43
2023/09/15 06:24:46;;;;;;;5.40;3.92;;;14.10;99.90;;;;;;5085506;28;20035;-42
2023/09/15 06:27:12;;;;;;;6.18;4.07;;;14.10;99.90;;;;;;5086409;28;20497;-42
2023/09/15 06:29:38;;;;;;;5.60;4.10;;;14.10;99.90;;;;;;5087346;28;20028;-43
2023/09/15 06:32:04;;;;;;;6.22;4.18;;;14.20;99.90;;;;;;5084878;28;20425;-42
2023/09/15 06:34:29;;;;;;;5.90;4.72;;;14.20;99.90;;;;;;5086139;28;20024;-42
2023/09/15 06:36:55;;;;;;;4.35;3.55;;;14.20;99.90;;;;;;5085787;28;20020;-43
2023/09/15 06:39:23;;;;;;;5.72;4.10;;;14.30;99.90;;;;;;5085589;28;20016;-45
2023/09/15 06:41:49;;;;;;;5.47;4.05;;;14.30;99.90;;;;;;5075582;28;20096;-43
2023/09/15 06:44:18;;;;;;;6.85;4.18;;;14.40;99.90;;;;;;5085602;28;20039;-43
2023/09/15 06:46:44;;;;;;;5.13;4.05;;;14.40;99.90;;;;;;5085988;28;20027;-43
2023/09/15 06:49:21;;;;;;;4.88;3.85;;;14.40;99.90;;;;;;5085483;28;20032;-43
2023/09/15 06:51:49;;;;;;;4.55;3.60;;;14.40;99.90;;;;;;5083808;28;20035;-44
2023/09/15 06:54:14;;;;;;;4.05;3.65;;;14.50;99.90;;;;;;5085435;28;20032;-43
2023/09/15 06:56:40;;;;;;;6.88;4.32;;;14.50;99.90;;;;;;5086161;28;20596;-44
2023/09/15 06:59:05;;;;;;;7.07;4.32;;;14.50;99.90;;;;;;5084998;28;20103;-42
2023/09/15 07:01:34;;;;;;;6.68;4.35;;;14.60;99.90;;;;;;5085890;28;20135;-43
2023/09/15 07:04:04;;;;;;;6.20;3.95;;;14.60;99.90;;;;;;5086081;28;20023;-43
2023/09/15 07:06:29;;;;;;;4.55;4.00;;;14.60;99.90;;;;;;5085694;28;20028;-43
2023/09/15 07:08:55;;;;;;;6.43;3.95;;;14.60;99.90;;;;;;5085320;28;20022;-42
2023/09/15 07:11:20;;;;;;;5.47;4.07;;;14.70;99.90;;;;;;5085417;28;20077;-42
2023/09/15 07:13:46;;;;;;;5.93;4.00;;;14.70;99.90;;;;;;5084995;28;20067;-43
2023/09/15 07:16:11;;;;;;;6.00;3.67;;;14.70;99.90;;;;;;5085321;28;20075;-43
2023/09/15 07:18:37;;;;;;;5.15;3.92;;;14.70;99.90;;;;;;5085745;28;20023;-43
2023/09/15 07:21:03;;;;;;;6.05;3.95;;;14.80;99.90;;;;;;5085241;28;20109;-43
2023/09/15 07:23:28;;;;;;;5.65;3.85;;;14.80;99.90;;;;;;5086153;28;20052;-43
2023/09/15 07:25:54;;;;;;;5.60;3.88;;;14.80;99.90;;;;;;5084928;28;20051;-42
2023/09/15 07:28:20;;;;;;;5.57;3.95;;;14.90;99.90;;;;;;5073752;28;20646;-43
2023/09/15 07:30:46;;;;;;;4.18;3.30;;;14.90;99.90;;;;;;5085425;28;20504;-42
2023/09/15 07:33:11;;;;;;;4.82;3.65;;;15.00;99.90;;;;;;5084818;28;20443;-43
2023/09/15 07:35:37;;;;;;;4.22;3.05;;;15.00;99.90;;;;;;5084702;28;20044;-42
2023/09/15 07:38:06;;;;;;;7.15;4.03;;;15.10;99.90;;;;;;5084999;28;20452;-42
2023/09/15 07:40:34;;;;;;;4.93;3.30;;;15.10;99.90;;;;;;5086003;28;20036;-42
2023/09/15 07:43:00;;;;;;;5.80;3.50;;;15.10;99.90;;;;;;5083797;28;20682;-43
2023/09/15 07:45:28;;;;;;;5.50;3.45;;;15.20;99.90;;;;;;5085143;28;20558;-42
2023/09/15 07:47:54;;;;;;;4.20;3.40;;;15.30;99.90;;;;;;5085139;28;20161;-43
2023/09/15 07:50:20;;;;;;;5.22;3.42;;;15.30;99.90;;;;;;5084020;28;20813;-42
2023/09/15 07:52:46;;;;;;;5.25;3.25;;;15.30;99.90;;;;;;5085202;28;20073;-42
2023/09/15 07:55:12;;;;;;;4.68;3.28;;;15.40;99.90;;;;;;5083578;28;20032;-42
2023/09/15 07:57:39;;;;;;;4.70;3.45;;;15.40;99.90;;;;;;5084800;28;20030;-43
2023/09/15 08:00:25;;;;;;;4.68;3.70;;;15.50;99.90;;;;;;5085200;28;20016;-44
2023/09/15 08:02:51;;;;;;;3.72;3.03;;;15.50;99.90;;;;;;5084488;28;20403;-42
2023/09/15 08:05:16;;;;;;;3.40;2.85;;;15.60;99.90;;;;;;5084606;28;20049;-42
2023/09/15 08:07:46;;;;;;;4.68;2.65;;;15.60;99.90;;;;;;5085648;28;20418;-42
2023/09/15 08:10:13;;;;;;;3.83;2.90;;;15.70;99.90;;;;;;5083923;28;20032;-43
2023/09/15 08:12:39;;;;;;;3.50;2.92;;;15.80;99.90;;;;;;5084134;28;20020;-45
2023/09/15 08:15:05;;;;;;;3.72;3.05;;;15.90;99.90;;;;;;5083880;28;20036;-43
2023/09/15 08:17:38;;;;;;;4.97;3.10;;;15.90;99.90;;;;;;5084646;28;20463;-42
2023/09/15 08:20:04;;;;;;;3.33;2.72;;;16.00;99.90;;;;;;5083554;28;20114;-42
2023/09/15 08:22:32;;;;;;;4.45;2.70;;;16.00;99.90;;;;;;5085165;28;20052;-43
2023/09/15 08:24:58;;;;;;;3.85;2.42;;;16.10;99.90;;;;;;5082769;28;20480;-43
2023/09/15 08:27:25;;;;;;;4.38;2.60;;;16.20;99.90;;;;;;5082893;28;20097;-43
2023/09/15 08:29:51;;;;;;;3.03;2.33;;;16.30;99.90;;;;;;5083963;28;20626;-42
2023/09/15 08:32:16;;;;;;;2.85;2.17;;;16.30;99.90;;;;;;5083353;28;20027;-43
2023/09/15 08:34:42;;;;;;;3.33;2.50;;;16.30;99.90;;;;;;5084344;28;20491;-42
2023/09/15 08:37:08;;;;;;;2.90;2.30;;;16.40;99.90;;;;;;5084248;28;20021;-42
2023/09/15 08:39:33;;;;;;;2.60;2.38;;;16.50;99.90;;;;;;5084059;28;20039;-42
2023/09/15 08:42:13;;;;;;;3.00;2.38;;;16.50;99.90;;;;;;5084538;28;20028;-43
2023/09/15 08:44:44;;;;;;;4.97;3.20;;;16.60;99.90;;;;;;5083574;28;20143;-41
2023/09/15 08:47:10;;;;;;;3.45;2.65;;;16.60;99.90;;;;;;5084042;28;20455;-42
2023/09/15 08:49:37;;;;;;;3.70;2.83;;;16.70;99.90;;;;;;5084214;28;20024;-42
2023/09/15 08:52:04;;;;;;;5.32;3.05;;;16.70;99.90;;;;;;5082698;28;20036;-42
2023/09/15 08:54:31;;;;;;;6.40;3.10;;;16.80;99.90;;;;;;5084878;28;20028;-42
2023/09/15 08:56:58;;;;;;;6.72;2.88;;;16.70;99.90;;;;;;5087111;28;20027;-43
2023/09/15 08:59:23;;;;;;;3.97;2.95;;;16.80;99.90;;;;;;5087011;28;20031;-42
2023/09/15 09:01:52;;;;;;;4.00;2.88;;;16.80;99.90;;;;;;5088061;28;20040;-42
2023/09/15 09:04:18;;;;;;;3.58;2.45;;;16.90;99.90;;;;;;5087568;28;20124;-42
2023/09/15 09:06:45;;;;;;;4.15;2.60;;;16.90;99.90;;;;;;5087865;28;20103;-43
2023/09/15 09:09:11;;;;;;;3.50;2.60;;;17.00;99.90;;;;;;5087795;28;20069;-42
2023/09/15 09:11:37;;;;;;;3.60;2.80;;;17.00;99.90;;;;;;5089013;28;20050;-43
2023/09/15 09:14:10;;;;;;;5.38;3.30;;;17.10;99.90;;;;;;5086715;28;20487;-43
2023/09/15 09:16:36;;;;;;;4.00;2.50;;;17.10;99.90;;;;;;5084904;28;20391;-44
2023/09/15 09:19:03;;;;;;;2.70;2.40;;;17.20;99.90;;;;;;5088091;28;20024;-43
2023/09/15 09:21:31;;;;;;;2.55;2.30;;;17.20;99.90;;;;;;5087084;28;20124;-42
2023/09/15 09:23:57;;;;;;;4.78;3.00;;;17.30;99.90;;;;;;5088683;28;20375;-42
2023/09/15 09:26:23;;;;;;;3.78;2.55;;;17.40;99.90;;;;;;5088137;28;20028;-41
2023/09/15 09:28:58;;;;;;;4.75;3.10;;;17.40;99.90;;;;;;5087684;28;20049;-44
2023/09/15 09:31:26;;;;;;;3.40;2.55;;;17.50;99.90;;;;;;5086430;28;20020;-43
2023/09/15 09:33:55;;;;;;;3.90;3.13;;;17.60;99.90;;;;;;5066431;28;20031;-42
2023/09/15 09:36:21;;;;;;;3.65;2.70;;;17.60;99.90;;;;;;5081960;28;20067;-43
2023/09/15 09:38:48;;;;;;;3.80;2.88;;;17.60;99.90;;;;;;5087121;28;20114;-42
2023/09/15 09:41:16;;;;;;;4.05;2.72;;;17.70;99.90;;;;;;5086566;28;20056;-43
2023/09/15 09:43:47;;;;;;;4.55;2.75;;;17.70;99.90;;;;;;5087932;28;20056;-43
2023/09/15 09:46:22;;;;;;;2.67;2.47;;;17.80;99.90;;;;;;5087134;28;20028;-42
2023/09/15 09:48:49;;;;;;;2.70;2.50;;;17.90;99.90;;;;;;5086369;28;20023;-43
2023/09/15 09:51:19;;;;;;;3.58;2.75;;;17.90;99.90;;;;;;5086621;28;20016;-43
2023/09/15 09:53:45;;;;;;;3.70;2.78;;;17.90;99.90;;;;;;5087398;28;20492;-42
2023/09/15 09:56:21;;;;;;;3.58;2.70;;;18.00;99.90;;;;;;5085247;28;20028;-41
2023/09/15 09:58:46;;;;;;;4.70;2.85;;;18.10;99.90;;;;;;5087796;28;20032;-42
2023/09/15 10:01:13;;;;;;;3.33;2.58;;;18.10;99.90;;;;;;5085999;28;20055;-42
2023/09/15 10:03:40;;;;;;;3.58;2.70;;;18.20;99.90;;;;;;5087410;28;20024;-42
2023/09/15 10:06:08;;;;;;;2.85;2.33;;;18.20;99.90;;;;;;5087214;28;20035;-42
2023/09/15 10:08:34;;;;;;;4.22;2.47;;;18.20;99.90;;;;;;5086024;28;20561;-42
2023/09/15 10:11:00;;;;;;;4.55;3.65;;;18.30;99.90;;;;;;5085219;28;20032;-42
2023/09/15 10:13:27;;;;;;;4.07;3.22;;;18.30;99.90;;;;;;5084019;28;20016;-42
2023/09/15 10:15:54;;;;;;;3.97;2.70;;;18.30;99.90;;;;;;5087037;28;20127;-42
2023/09/15 10:18:24;;;;;;;4.15;3.13;;;18.30;99.90;;;;;;5086521;28;20081;-42
2023/09/15 10:20:53;;;;;;;3.55;2.70;;;18.40;99.90;;;;;;5064912;28;20483;-42
2023/09/15 10:23:18;;;;;;;4.20;2.72;;;18.40;99.90;;;;;;5083212;28;20039;-42
2023/09/15 10:25:48;;;;;;;3.70;3.17;;;18.50;99.90;;;;;;5087143;28;20032;-42
2023/09/15 10:28:14;;;;;;;3.85;2.50;;;18.50;99.90;;;;;;5085917;28;20107;-42
2023/09/15 10:30:41;;;;;;;4.22;2.90;;;18.50;99.90;;;;;;5086527;28;20471;-42
2023/09/15 10:33:07;;;;;;;4.50;2.70;;;18.60;99.90;;;;;;5086622;28;20016;-42
2023/09/15 10:35:33;;;;;;;3.38;2.60;;;18.60;99.90;;;;;;5087002;28;20027;-42
2023/09/15 10:38:03;;;;;;;2.92;2.45;;;18.70;99.90;;;;;;5085542;28;20519;-42
2023/09/15 10:40:48;;;;;;;4.57;2.42;;;18.70;99.90;;;;;;5086657;28;20463;-42
2023/09/15 10:43:15;;;;;;;4.78;2.83;;;18.70;99.90;;;;;;5085862;28;20115;-41
2023/09/15 10:45:52;;;;;;;3.25;2.40;;;18.80;99.90;;;;;;5085965;28;20491;-42
2023/09/15 10:48:18;;;;;;;2.53;1.95;;;18.80;99.90;;;;;;5085155;28;20020;-42
2023/09/15 10:50:44;;;;;;;2.67;2.13;;;18.90;99.90;;;;;;5086763;28;20023;-41
2023/09/15 10:53:15;;;;;;;3.92;2.80;;;18.90;99.90;;;;;;5084879;28;20028;-42
2023/09/15 10:55:40;;;;;;;3.63;2.40;;;18.90;99.90;;;;;;5087124;28;20032;-43
2023/09/15 10:58:07;;;;;;;2.50;2.28;;;18.90;99.90;;;;;;5085227;28;20023;-42
2023/09/15 11:00:33;;;;;;;2.90;2.42;;;19.00;99.90;;;;;;5086229;28;20031;-43
2023/09/15 11:03:00;;;;;;;3.35;2.25;;;19.10;99.90;;;;;;5086106;28;20044;-42
2023/09/15 11:05:29;;;;;;;2.90;2.28;;;19.20;99.90;;;;;;5085801;28;20418;-42
2023/09/15 11:07:56;;;;;;;2.83;2.35;;;19.10;99.90;;;;;;5086711;28;20016;-41
2023/09/15 11:10:31;;;;;;;3.63;2.50;;;19.20;99.90;;;;;;5086018;28;20252;-43
2023/09/15 11:13:06;;;;;;;2.95;2.33;;;19.20;99.90;;;;;;5084924;28;20054;-43
2023/09/15 11:15:33;;;;;;;2.55;2.20;;;19.20;99.90;;;;;;5082703;28;20034;-42
2023/09/15 11:17:58;;;;;;;5.38;2.70;;;19.30;99.90;;;;;;5085961;28;20657;-42
2023/09/15 11:20:24;;;;;;;3.70;3.10;;;19.30;99.90;;;;;;5085015;28;20024;-42
2023/09/15 11:22:58;;;;;;;3.67;2.42;;;19.40;99.90;;;;;;5086371;28;20152;-42
2023/09/15 11:25:27;;;;;;;3.85;2.72;;;19.40;99.90;;;;;;5084784;28;20420;-42
2023/09/15 11:27:56;;;;;;;3.97;2.92;;;19.40;99.90;;;;;;5085452;28;20085;-42
2023/09/15 11:30:26;;;;;;;3.10;2.53;;;19.50;99.90;;;;;;5085507;28;20111;-42
2023/09/15 11:32:53;;;;;;;2.50;2.00;;;19.60;99.90;;;;;;5065602;28;20042;-42
2023/09/15 11:35:23;;;;;;;3.28;2.45;;;19.60;99.90;;;;;;5078592;28;20028;-42
2023/09/15 11:37:49;;;;;;;3.13;2.20;;;19.70;99.90;;;;;;5085614;28;20024;-42
2023/09/15 11:40:24;;;;;;;2.97;2.17;;;19.70;99.90;;;;;;5083979;28;20039;-42
2023/09/15 11:43:00;;;;;;;4.22;2.40;;;19.80;99.90;;;;;;5085674;28;20027;-42
2023/09/15 11:45:30;;;;;;;2.33;1.77;;;19.90;99.90;;;;;;5085698;28;20039;-41
2023/09/15 11:47:58;;;;;;;2.33;2.10;;;19.90;99.90;;;;;;5084169;28;20044;-43
2023/09/15 11:50:25;;;;;;;3.80;2.40;;;19.90;99.90;;;;;;5084468;28;20031;-42
2023/09/15 11:52:52;;;;;;;4.07;2.33;;;19.90;99.90;;;;;;5085403;28;20082;-42
2023/09/15 11:55:20;;;;;;;2.97;2.22;;;19.90;99.90;;;;;;5084286;28;20024;-42
2023/09/15 11:57:46;;;;;;;3.25;2.10;;;20.00;99.90;;;;;;5085908;28;20386;-43
2023/09/15 12:00:16;;;;;;;4.50;2.15;;;20.10;99.90;;;;;;5085076;28;20016;-43
2023/09/15 12:02:48;;;;;;;3.53;2.20;;;20.20;99.90;;;;;;5084129;28;20063;-43
2023/09/15 12:05:16;;;;;;;3.58;1.85;;;20.30;99.90;;;;;;5084106;28;20048;-42
2023/09/15 12:07:46;;;;;;;3.67;2.17;;;20.30;99.90;;;;;;5075026;28;20032;-43
2023/09/15 12:10:21;;;;;;;3.60;2.00;;;20.40;99.90;;;;;;5084111;28;20070;-43
2023/09/15 12:12:48;;;;;;;3.47;1.88;;;20.40;99.90;;;;;;5085058;28;20016;-42
2023/09/15 12:15:14;;;;;;;3.30;2.20;;;20.50;99.90;;;;;;5084468;28;20106;-42
2023/09/15 12:17:42;;;;;;;3.17;2.15;;;20.50;99.90;;;;;;5084386;28;20111;-42
2023/09/15 12:20:08;;;;;;;2.53;1.92;;;20.60;99.90;;;;;;5084446;28;20032;-41
2023/09/15 12:22:45;;;;;;;3.78;2.47;;;20.60;99.90;;;;;;5083394;28;20024;-43
2023/09/15 12:25:15;;;;;;;3.22;2.30;;;20.70;99.90;;;;;;5084545;28;20043;-42
2023/09/15 12:27:41;;;;;;;2.22;1.88;;;20.70;99.90;;;;;;5083643;28;20016;-42
2023/09/15 12:30:09;;;;;;;3.17;2.10;;;20.80;99.90;;;;;;5082981;28;20114;-45
2023/09/15 12:32:36;;;;;;;3.17;1.70;;;20.80;99.90;;;;;;5084258;28;20027;-44
2023/09/15 12:35:08;;;;;;;3.28;1.88;;;20.80;99.90;;;;;;5084525;28;20020;-44
2023/09/15 12:37:34;;;;;;;2.72;1.85;;;20.80;99.90;;;;;;5083486;28;20027;-43
2023/09/15 12:39:59;;;;;;;2.85;2.17;;;20.80;99.90;;;;;;5084300;28;20024;-43
2023/09/15 12:42:25;;;;;;;2.55;2.15;;;20.80;99.90;;;;;;5084392;28;20078;-41
2023/09/15 12:44:50;;;;;;;2.95;1.90;;;20.80;99.90;;;;;;5083817;28;20672;-43
2023/09/15 12:47:16;;;;;;;3.13;2.20;;;20.80;99.90;;;;;;5084064;28;20486;-43
2023/09/15 12:49:42;;;;;;;3.42;2.03;;;20.80;99.90;;;;;;5083744;28;20036;-43
2023/09/15 12:52:09;;;;;;;1.90;1.70;;;20.90;99.90;;;;;;5083579;28;20028;-42